Air Quality Table

TIMESTAMP NO2 SO2 O3 PM10 PM2.5 TEMP HUM AIRPRES WS WD NO
2022-11-30 11:00 3.87 µg/m3 0.17 µg/m3 88.63 µg/m3 2.32 µg/m3 1 µg/m3 °C % mbar m/s Deg 0.39 µg/m3
2022-11-30 10:00 0.71 µg/m3 0.13 µg/m3 88.76 µg/m3 -1.45 µg/m3 1 µg/m3 °C % mbar m/s Deg 0.08 µg/m3
2022-11-30 09:00 0.72 µg/m3 0.18 µg/m3 87.16 µg/m3 -2.59 µg/m3 1 µg/m3 °C % mbar m/s Deg 0.09 µg/m3
2022-11-30 08:00 0.95 µg/m3 0.18 µg/m3 86.97 µg/m3 3.82 µg/m3 1 µg/m3 °C % mbar m/s Deg 0.07 µg/m3
2022-11-30 07:00 1.96 µg/m3 0.16 µg/m3 84.55 µg/m3 3.39 µg/m3 1 µg/m3 °C % mbar m/s Deg 0.07 µg/m3
2022-11-30 06:00 1.4 µg/m3 0.26 µg/m3 86.32 µg/m3 -0.52 µg/m3 1 µg/m3 °C % mbar m/s Deg 0.07 µg/m3
2022-11-30 05:00 1.29 µg/m3 0.16 µg/m3 88.59 µg/m3 3.2 µg/m3 1 µg/m3 °C % mbar m/s Deg 0.06 µg/m3
2022-11-30 04:00 1.07 µg/m3 0.41 µg/m3 83.76 µg/m3 4.58 µg/m3 1 µg/m3 °C % mbar m/s Deg 0.06 µg/m3
2022-11-30 03:00 0.94 µg/m3 0.29 µg/m3 83.66 µg/m3 6.53 µg/m3 1 µg/m3 °C % mbar m/s Deg 0.06 µg/m3
2022-11-30 02:00 0.64 µg/m3 0.3 µg/m3 83.04 µg/m3 2.65 µg/m3 1 µg/m3 °C % mbar m/s Deg 0.06 µg/m3
2022-11-30 01:00 0.57 µg/m3 0.3 µg/m3 83.45 µg/m3 9.46 µg/m3 1 µg/m3 °C % mbar m/s Deg 0.05 µg/m3
2022-11-30 00:00 0.95 µg/m3 0.25 µg/m3 86.53 µg/m3 7.98 µg/m3 1 µg/m3 °C % mbar m/s Deg 0.05 µg/m3
2022-11-29 23:00 1.02 µg/m3 0.15 µg/m3 89.79 µg/m3 4.65 µg/m3 1 µg/m3 °C % mbar m/s Deg 0.05 µg/m3
2022-11-29 22:00 1.07 µg/m3 0.13 µg/m3 91.09 µg/m3 7.22 µg/m3 1 µg/m3 °C % mbar m/s Deg 0.05 µg/m3
2022-11-29 21:00 1.7 µg/m3 0.23 µg/m3 85.93 µg/m3 -1.91 µg/m3 1 µg/m3 °C % mbar m/s Deg 0.06 µg/m3
2022-11-29 20:00 1.91 µg/m3 0.18 µg/m3 81.59 µg/m3 5.94 µg/m3 1 µg/m3 °C % mbar m/s Deg 0.06 µg/m3
2022-11-29 19:00 2.3 µg/m3 0.19 µg/m3 83.12 µg/m3 6.58 µg/m3 1 µg/m3 °C % mbar m/s Deg 0.07 µg/m3
2022-11-29 18:00 1.55 µg/m3 0.21 µg/m3 87.33 µg/m3 12 µg/m3 1 µg/m3 °C % mbar m/s Deg 0.06 µg/m3
2022-11-29 17:00 3.68 µg/m3 0.21 µg/m3 81.44 µg/m3 0.76 µg/m3 1 µg/m3 °C % mbar m/s Deg 0.1 µg/m3
2022-11-29 16:00 5.58 µg/m3 0.25 µg/m3 81.43 µg/m3 10.74 µg/m3 1 µg/m3 °C % mbar m/s Deg 0.26 µg/m3
2022-11-29 15:00 2.15 µg/m3 0.21 µg/m3 84.41 µg/m3 10.82 µg/m3 1 µg/m3 °C % mbar m/s Deg 0.15 µg/m3
2022-11-29 14:00 2.3 µg/m3 0.2 µg/m3 84.55 µg/m3 4.98 µg/m3 1 µg/m3 °C % mbar m/s Deg 0.23 µg/m3

It is to be noted that the data is provisional and subject to quality assurance procedures. For validated data kindly refer your request to contact.air@era.org.mt